sensor_id;sensor_type;location;lat;lon;timestamp;pressure;altitude;pressure_sealevel;temperature;humidity
54948;BME280;41113;41.882;12.530;2022-12-18T00:02:04;101820.59;;;11.64;100.00
54948;BME280;41113;41.882;12.530;2022-12-18T00:04:30;101826.81;;;11.64;100.00
54948;BME280;41113;41.882;12.530;2022-12-18T00:06:55;101831.56;;;11.61;100.00
54948;BME280;41113;41.882;12.530;2022-12-18T00:09:21;101829.88;;;11.60;100.00
54948;BME280;41113;41.882;12.530;2022-12-18T00:11:47;101828.59;;;11.52;100.00
54948;BME280;41113;41.882;12.530;2022-12-18T00:14:13;101830.31;;;11.53;100.00
54948;BME280;41113;41.882;12.530;2022-12-18T00:16:39;101837.06;;;11.35;100.00
54948;BME280;41113;41.882;12.530;2022-12-18T00:19:05;101833.19;;;11.39;100.00
54948;BME280;41113;41.882;12.530;2022-12-18T00:21:33;101839.44;;;11.40;100.00
54948;BME280;41113;41.882;12.530;2022-12-18T00:23:59;101844.03;;;11.38;100.00
54948;BME280;41113;41.882;12.530;2022-12-18T00:26:27;101843.28;;;11.36;100.00
54948;BME280;41113;41.882;12.530;2022-12-18T00:28:53;101851.47;;;11.34;100.00
54948;BME280;41113;41.882;12.530;2022-12-18T00:31:21;101850.84;;;11.31;100.00
54948;BME280;41113;41.882;12.530;2022-12-18T00:33:47;101855.81;;;11.24;100.00
54948;BME280;41113;41.882;12.530;2022-12-18T00:36:16;101863.44;;;11.30;100.00
54948;BME280;41113;41.882;12.530;2022-12-18T00:38:42;101865.91;;;11.33;100.00
54948;BME280;41113;41.882;12.530;2022-12-18T00:41:10;101865.47;;;11.39;100.00
54948;BME280;41113;41.882;12.530;2022-12-18T00:43:37;101870.53;;;11.31;100.00
54948;BME280;41113;41.882;12.530;2022-12-18T00:46:03;101871.22;;;11.22;100.00
54948;BME280;41113;41.882;12.530;2022-12-18T00:48:28;101872.19;;;11.21;100.00
54948;BME280;41113;41.882;12.530;2022-12-18T00:50:54;101867.25;;;11.15;100.00
54948;BME280;41113;41.882;12.530;2022-12-18T00:53:19;101872.84;;;11.12;100.00
54948;BME280;41113;41.882;12.530;2022-12-18T00:55:45;101877.25;;;11.13;100.00
54948;BME280;41113;41.882;12.530;2022-12-18T00:58:12;101880.81;;;11.13;100.00
54948;BME280;41113;41.882;12.530;2022-12-18T01:00:38;101879.31;;;11.09;100.00
54948;BME280;41113;41.882;12.530;2022-12-18T01:03:04;101883.84;;;11.09;100.00
54948;BME280;41113;41.882;12.530;2022-12-18T01:05:31;101890.94;;;11.10;100.00
54948;BME280;41113;41.882;12.530;2022-12-18T01:07:56;101892.88;;;11.08;100.00
54948;BME280;41113;41.882;12.530;2022-12-18T01:10:23;101894.88;;;11.04;100.00
54948;BME280;41113;41.882;12.530;2022-12-18T01:12:49;101903.81;;;11.05;100.00
54948;BME280;41113;41.882;12.530;2022-12-18T01:15:15;101906.41;;;11.06;100.00
54948;BME280;41113;41.882;12.530;2022-12-18T01:17:41;101909.75;;;11.10;100.00
54948;BME280;41113;41.882;12.530;2022-12-18T01:20:08;101916.31;;;11.06;100.00
54948;BME280;41113;41.882;12.530;2022-12-18T01:22:34;101919.31;;;11.14;100.00
54948;BME280;41113;41.882;12.530;2022-12-18T01:25:00;101922.97;;;11.00;100.00
54948;BME280;41113;41.882;12.530;2022-12-18T01:27:25;101921.69;;;10.93;100.00
54948;BME280;41113;41.882;12.530;2022-12-18T01:29:51;101925.75;;;10.99;100.00
54948;BME280;41113;41.882;12.530;2022-12-18T01:32:16;101935.13;;;10.93;100.00
54948;BME280;41113;41.882;12.530;2022-12-18T01:34:42;101939.09;;;10.87;100.00
54948;BME280;41113;41.882;12.530;2022-12-18T01:37:07;101941.03;;;10.85;100.00
54948;BME280;41113;41.882;12.530;2022-12-18T01:39:32;101942.84;;;10.72;100.00
54948;BME280;41113;41.882;12.530;2022-12-18T01:42:18;101951.13;;;10.69;100.00
54948;BME280;41113;41.882;12.530;2022-12-18T01:50:07;101958.00;;;10.60;100.00
54948;BME280;41113;41.882;12.530;2022-12-18T01:52:34;101960.72;;;10.73;100.00
54948;BME280;41113;41.882;12.530;2022-12-18T01:55:02;101952.75;;;10.84;100.00
54948;BME280;41113;41.882;12.530;2022-12-18T01:57:28;101962.13;;;10.79;100.00
54948;BME280;41113;41.882;12.530;2022-12-18T01:59:59;101957.59;;;10.79;100.00
54948;BME280;41113;41.882;12.530;2022-12-18T02:02:27;101959.75;;;10.74;100.00
54948;BME280;41113;41.882;12.530;2022-12-18T02:04:53;101959.50;;;10.65;100.00
54948;BME280;41113;41.882;12.530;2022-12-18T02:10:32;101972.59;;;10.44;100.00
54948;BME280;41113;41.882;12.530;2022-12-18T02:13:05;101968.09;;;10.57;100.00
54948;BME280;41113;41.882;12.530;2022-12-18T02:18:21;101982.47;;;10.43;100.00
54948;BME280;41113;41.882;12.530;2022-12-18T02:20:54;101979.97;;;10.40;100.00
54948;BME280;41113;41.882;12.530;2022-12-18T02:26:26;101983.06;;;10.34;100.00
54948;BME280;41113;41.882;12.530;2022-12-18T02:28:56;101988.09;;;10.26;100.00
54948;BME280;41113;41.882;12.530;2022-12-18T02:31:27;101992.50;;;10.27;100.00
54948;BME280;41113;41.882;12.530;2022-12-18T02:33:54;101983.94;;;10.35;100.00
54948;BME280;41113;41.882;12.530;2022-12-18T02:36:21;101982.91;;;10.50;100.00
54948;BME280;41113;41.882;12.530;2022-12-18T02:38:49;101981.13;;;10.36;100.00
54948;BME280;41113;41.882;12.530;2022-12-18T02:41:17;101989.41;;;10.33;100.00
54948;BME280;41113;41.882;12.530;2022-12-18T02:43:47;101985.22;;;10.29;100.00
54948;BME280;41113;41.882;12.530;2022-12-18T02:52:00;101984.09;;;10.46;100.00
54948;BME280;41113;41.882;12.530;2022-12-18T02:57:22;101989.78;;;10.54;100.00
54948;BME280;41113;41.882;12.530;2022-12-18T02:59:58;101993.03;;;10.59;100.00
54948;BME280;41113;41.882;12.530;2022-12-18T03:02:59;101988.41;;;10.61;100.00
54948;BME280;41113;41.882;12.530;2022-12-18T03:05:33;101994.53;;;10.63;100.00
54948;BME280;41113;41.882;12.530;2022-12-18T03:08:06;101995.28;;;10.65;100.00
54948;BME280;41113;41.882;12.530;2022-12-18T03:10:37;101999.91;;;10.63;100.00
54948;BME280;41113;41.882;12.530;2022-12-18T03:13:10;101998.94;;;10.64;100.00
54948;BME280;41113;41.882;12.530;2022-12-18T03:15:45;101997.97;;;10.65;100.00
54948;BME280;41113;41.882;12.530;2022-12-18T03:18:35;101999.69;;;10.66;100.00
54948;BME280;41113;41.882;12.530;2022-12-18T03:21:05;102002.59;;;10.63;100.00
54948;BME280;41113;41.882;12.530;2022-12-18T03:23:35;101999.16;;;10.61;100.00
54948;BME280;41113;41.882;12.530;2022-12-18T03:26:06;101998.72;;;10.67;100.00
54948;BME280;41113;41.882;12.530;2022-12-18T03:28:36;101998.41;;;10.59;100.00
54948;BME280;41113;41.882;12.530;2022-12-18T03:31:04;102001.84;;;10.61;100.00
54948;BME280;41113;41.882;12.530;2022-12-18T03:33:37;102002.50;;;10.65;100.00
54948;BME280;41113;41.882;12.530;2022-12-18T03:36:03;102008.28;;;10.71;100.00
54948;BME280;41113;41.882;12.530;2022-12-18T03:38:29;102001.41;;;10.67;100.00
54948;BME280;41113;41.882;12.530;2022-12-18T03:46:21;102001.97;;;10.72;100.00
54948;BME280;41113;41.882;12.530;2022-12-18T03:48:54;102011.94;;;10.70;100.00
54948;BME280;41113;41.882;12.530;2022-12-18T03:51:37;102005.38;;;10.62;100.00
54948;BME280;41113;41.882;12.530;2022-12-18T03:54:06;102022.13;;;10.52;100.00
54948;BME280;41113;41.882;12.530;2022-12-18T03:56:38;102015.56;;;10.44;100.00
54948;BME280;41113;41.882;12.530;2022-12-18T03:59:05;102023.56;;;10.31;100.00
54948;BME280;41113;41.882;12.530;2022-12-18T04:01:34;102022.50;;;10.34;100.00
54948;BME280;41113;41.882;12.530;2022-12-18T04:04:02;102030.53;;;10.34;100.00
54948;BME280;41113;41.882;12.530;2022-12-18T04:06:28;102036.78;;;10.34;100.00
54948;BME280;41113;41.882;12.530;2022-12-18T04:08:55;102024.97;;;10.37;100.00
54948;BME280;41113;41.882;12.530;2022-12-18T04:11:21;102030.53;;;10.34;100.00
54948;BME280;41113;41.882;12.530;2022-12-18T04:13:47;102036.31;;;10.27;100.00
54948;BME280;41113;41.882;12.530;2022-12-18T04:16:12;102035.03;;;10.20;100.00
54948;BME280;41113;41.882;12.530;2022-12-18T04:18:38;102038.84;;;10.16;100.00
54948;BME280;41113;41.882;12.530;2022-12-18T04:21:04;102044.63;;;10.10;100.00
54948;BME280;41113;41.882;12.530;2022-12-18T04:23:29;102042.69;;;10.12;100.00
54948;BME280;41113;41.882;12.530;2022-12-18T04:25:54;102044.41;;;10.13;100.00
54948;BME280;41113;41.882;12.530;2022-12-18T04:28:20;102045.47;;;10.11;100.00
54948;BME280;41113;41.882;12.530;2022-12-18T04:30:45;102049.56;;;10.16;100.00
54948;BME280;41113;41.882;12.530;2022-12-18T04:33:12;102049.75;;;10.27;100.00
54948;BME280;41113;41.882;12.530;2022-12-18T04:35:39;102043.22;;;10.32;100.00
54948;BME280;41113;41.882;12.530;2022-12-18T04:38:08;102049.97;;;10.24;100.00
54948;BME280;41113;41.882;12.530;2022-12-18T04:40:36;102053.59;;;10.23;100.00
54948;BME280;41113;41.882;12.530;2022-12-18T04:43:02;102056.50;;;10.20;100.00
54948;BME280;41113;41.882;12.530;2022-12-18T04:45:27;102063.75;;;10.18;100.00
54948;BME280;41113;41.882;12.530;2022-12-18T04:47:53;102075.66;;;10.14;100.00
54948;BME280;41113;41.882;12.530;2022-12-18T04:50:18;102074.31;;;10.07;100.00
54948;BME280;41113;41.882;12.530;2022-12-18T04:52:43;102083.50;;;10.17;100.00
54948;BME280;41113;41.882;12.530;2022-12-18T04:55:09;102077.97;;;10.20;100.00
54948;BME280;41113;41.882;12.530;2022-12-18T04:57:34;102077.78;;;10.23;100.00
54948;BME280;41113;41.882;12.530;2022-12-18T05:00:00;102085.53;;;10.28;100.00
54948;BME280;41113;41.882;12.530;2022-12-18T05:02:25;102096.66;;;10.22;100.00
54948;BME280;41113;41.882;12.530;2022-12-18T05:04:51;102089.28;;;10.11;100.00
54948;BME280;41113;41.882;12.530;2022-12-18T05:07:16;102099.81;;;10.14;100.00
54948;BME280;41113;41.882;12.530;2022-12-18T05:09:41;102097.13;;;10.28;100.00
54948;BME280;41113;41.882;12.530;2022-12-18T05:12:07;102098.44;;;10.36;100.00
54948;BME280;41113;41.882;12.530;2022-12-18T05:14:32;102101.72;;;10.41;100.00
54948;BME280;41113;41.882;12.530;2022-12-18T05:16:58;102104.94;;;10.46;100.00
54948;BME280;41113;41.882;12.530;2022-12-18T05:19:23;102113.34;;;10.27;100.00
54948;BME280;41113;41.882;12.530;2022-12-18T05:21:48;102124.94;;;10.13;100.00
54948;BME280;41113;41.882;12.530;2022-12-18T05:24:14;102124.66;;;10.04;100.00
54948;BME280;41113;41.882;12.530;2022-12-18T05:26:39;102121.41;;;9.98;100.00
54948;BME280;41113;41.882;12.530;2022-12-18T05:29:04;102130.41;;;9.97;100.00
54948;BME280;41113;41.882;12.530;2022-12-18T05:31:30;102137.41;;;9.86;100.00
54948;BME280;41113;41.882;12.530;2022-12-18T05:33:55;102139.72;;;9.78;100.00
54948;BME280;41113;41.882;12.530;2022-12-18T05:36:21;102143.19;;;9.80;100.00
54948;BME280;41113;41.882;12.530;2022-12-18T05:38:46;102140.66;;;9.91;100.00
54948;BME280;41113;41.882;12.530;2022-12-18T05:41:11;102142.19;;;9.95;100.00
54948;BME280;41113;41.882;12.530;2022-12-18T05:43:38;102149.66;;;10.04;100.00
54948;BME280;41113;41.882;12.530;2022-12-18T05:46:06;102150.44;;;10.06;100.00
54948;BME280;41113;41.882;12.530;2022-12-18T05:48:32;102147.38;;;9.98;100.00
54948;BME280;41113;41.882;12.530;2022-12-18T05:51:04;102158.41;;;9.93;100.00
54948;BME280;41113;41.882;12.530;2022-12-18T05:53:29;102159.25;;;9.94;100.00
54948;BME280;41113;41.882;12.530;2022-12-18T05:55:59;102156.56;;;9.94;100.00
54948;BME280;41113;41.882;12.530;2022-12-18T05:58:25;102167.91;;;9.85;100.00
54948;BME280;41113;41.882;12.530;2022-12-18T06:00:50;102172.88;;;9.77;100.00
54948;BME280;41113;41.882;12.530;2022-12-18T06:03:16;102171.91;;;9.78;100.00
54948;BME280;41113;41.882;12.530;2022-12-18T06:05:43;102176.91;;;9.84;100.00
54948;BME280;41113;41.882;12.530;2022-12-18T06:08:09;102175.19;;;9.83;100.00
54948;BME280;41113;41.882;12.530;2022-12-18T06:10:36;102177.75;;;9.84;100.00
54948;BME280;41113;41.882;12.530;2022-12-18T06:13:02;102178.31;;;9.75;100.00
54948;BME280;41113;41.882;12.530;2022-12-18T06:15:27;102185.72;;;9.86;100.00
54948;BME280;41113;41.882;12.530;2022-12-18T06:17:53;102188.00;;;9.92;100.00
54948;BME280;41113;41.882;12.530;2022-12-18T06:20:18;102188.97;;;9.91;100.00
54948;BME280;41113;41.882;12.530;2022-12-18T06:22:44;102187.44;;;9.87;100.00
54948;BME280;41113;41.882;12.530;2022-12-18T06:25:09;102187.44;;;9.87;100.00
54948;BME280;41113;41.882;12.530;2022-12-18T06:27:35;102197.50;;;9.83;100.00
54948;BME280;41113;41.882;12.530;2022-12-18T06:30:00;102208.53;;;9.79;100.00
54948;BME280;41113;41.882;12.530;2022-12-18T06:32:26;102212.31;;;9.75;100.00
54948;BME280;41113;41.882;12.530;2022-12-18T06:34:52;102210.69;;;9.72;100.00
54948;BME280;41113;41.882;12.530;2022-12-18T06:37:18;102208.28;;;9.67;100.00
54948;BME280;41113;41.882;12.530;2022-12-18T06:39:44;102224.19;;;9.71;100.00
54948;BME280;41113;41.882;12.530;2022-12-18T06:42:09;102215.56;;;9.65;100.00
54948;BME280;41113;41.882;12.530;2022-12-18T06:44:35;102219.31;;;9.63;100.00
54948;BME280;41113;41.882;12.530;2022-12-18T06:47:00;102230.13;;;9.61;100.00
54948;BME280;41113;41.882;12.530;2022-12-18T06:49:25;102235.50;;;9.61;100.00
54948;BME280;41113;41.882;12.530;2022-12-18T06:51:51;102239.63;;;9.67;100.00
54948;BME280;41113;41.882;12.530;2022-12-18T06:54:17;102238.66;;;9.68;100.00
54948;BME280;41113;41.882;12.530;2022-12-18T06:56:44;102243.75;;;9.73;100.00
54948;BME280;41113;41.882;12.530;2022-12-18T06:59:09;102233.22;;;9.70;100.00
54948;BME280;41113;41.882;12.530;2022-12-18T07:01:35;102243.06;;;9.69;100.00
54948;BME280;41113;41.882;12.530;2022-12-18T07:04:00;102243.25;;;9.66;100.00
54948;BME280;41113;41.882;12.530;2022-12-18T07:06:26;102245.84;;;9.67;100.00
54948;BME280;41113;41.882;12.530;2022-12-18T07:08:53;102249.13;;;9.73;100.00
54948;BME280;41113;41.882;12.530;2022-12-18T07:11:19;102257.94;;;9.75;100.00
54948;BME280;41113;41.882;12.530;2022-12-18T07:13:46;102263.16;;;9.78;100.00
54948;BME280;41113;41.882;12.530;2022-12-18T07:16:16;102256.06;;;9.77;100.00
54948;BME280;41113;41.882;12.530;2022-12-18T07:18:42;102258.47;;;9.81;100.00
54948;BME280;41113;41.882;12.530;2022-12-18T07:21:10;102263.91;;;9.80;100.00
54948;BME280;41113;41.882;12.530;2022-12-18T07:23:36;102263.31;;;9.75;100.00
54948;BME280;41113;41.882;12.530;2022-12-18T07:26:03;102263.72;;;9.83;100.00
54948;BME280;41113;41.882;12.530;2022-12-18T07:28:29;102278.88;;;9.84;100.00
54948;BME280;41113;41.882;12.530;2022-12-18T07:30:55;102277.13;;;9.83;100.00
54948;BME280;41113;41.882;12.530;2022-12-18T07:33:20;102278.88;;;9.84;100.00
54948;BME280;41113;41.882;12.530;2022-12-18T07:35:46;102280.41;;;9.88;100.00
54948;BME280;41113;41.882;12.530;2022-12-18T07:38:11;102281.06;;;9.91;100.00
54948;BME280;41113;41.882;12.530;2022-12-18T07:40:36;102287.31;;;9.92;100.00
54948;BME280;41113;41.882;12.530;2022-12-18T07:43:02;102290.56;;;9.97;100.00
54948;BME280;41113;41.882;12.530;2022-12-18T07:45:30;102298.25;;;10.03;100.00
54948;BME280;41113;41.882;12.530;2022-12-18T07:47:55;102293.66;;;10.05;100.00
54948;BME280;41113;41.882;12.530;2022-12-18T07:50:20;102295.97;;;10.11;100.00
54948;BME280;41113;41.882;12.530;2022-12-18T07:52:46;102294.84;;;10.15;100.00
54948;BME280;41113;41.882;12.530;2022-12-18T07:55:12;102300.53;;;10.25;100.00
54948;BME280;41113;41.882;12.530;2022-12-18T07:57:37;102299.38;;;10.29;100.00
54948;BME280;41113;41.882;12.530;2022-12-18T08:00:03;102304.06;;;10.40;100.00
54948;BME280;41113;41.882;12.530;2022-12-18T08:02:30;102307.91;;;10.36;100.00
54948;BME280;41113;41.882;12.530;2022-12-18T08:04:56;102307.91;;;10.36;100.00
54948;BME280;41113;41.882;12.530;2022-12-18T08:07:21;102321.94;;;10.41;100.00
54948;BME280;41113;41.882;12.530;2022-12-18T08:09:47;102323.66;;;10.42;100.00
54948;BME280;41113;41.882;12.530;2022-12-18T08:12:12;102327.97;;;10.44;100.00
54948;BME280;41113;41.882;12.530;2022-12-18T08:14:37;102328.84;;;10.45;100.00
54948;BME280;41113;41.882;12.530;2022-12-18T08:17:03;102326.63;;;10.51;100.00
54948;BME280;41113;41.882;12.530;2022-12-18T08:19:28;102332.38;;;10.59;100.00
54948;BME280;41113;41.882;12.530;2022-12-18T08:21:54;102336.13;;;10.71;100.00
54948;BME280;41113;41.882;12.530;2022-12-18T08:24:19;102341.69;;;10.68;100.00
54948;BME280;41113;41.882;12.530;2022-12-18T08:26:45;102341.13;;;10.77;100.00
54948;BME280;41113;41.882;12.530;2022-12-18T08:29:10;102346.31;;;10.80;100.00
54948;BME280;41113;41.882;12.530;2022-12-18T08:31:36;102344.56;;;10.79;100.00
54948;BME280;41113;41.882;12.530;2022-12-18T08:34:01;102344.78;;;10.76;100.00
54948;BME280;41113;41.882;12.530;2022-12-18T08:36:27;102348.03;;;10.81;100.00
54948;BME280;41113;41.882;12.530;2022-12-18T08:38:53;102347.63;;;10.87;100.00
54948;BME280;41113;41.882;12.530;2022-12-18T08:41:19;102345.50;;;10.93;100.00
54948;BME280;41113;41.882;12.530;2022-12-18T08:43:45;102355.19;;;10.95;100.00
54948;BME280;41113;41.882;12.530;2022-12-18T08:46:37;102352.41;;;10.97;100.00
54948;BME280;41113;41.882;12.530;2022-12-18T08:49:03;102352.31;;;10.98;100.00
54948;BME280;41113;41.882;12.530;2022-12-18T08:51:29;102359.31;;;11.01;100.00
54948;BME280;41113;41.882;12.530;2022-12-18T08:53:54;102355.88;;;10.99;100.00
54948;BME280;41113;41.882;12.530;2022-12-18T08:56:20;102349.81;;;10.95;100.00
54948;BME280;41113;41.882;12.530;2022-12-18T08:58:45;102358.56;;;10.99;100.00
54948;BME280;41113;41.882;12.530;2022-12-18T09:01:12;102354.53;;;11.06;100.00
54948;BME280;41113;41.882;12.530;2022-12-18T09:03:38;102360.28;;;11.14;100.00
54948;BME280;41113;41.882;12.530;2022-12-18T09:06:03;102374.19;;;11.20;100.00
54948;BME280;41113;41.882;12.530;2022-12-18T09:08:29;102376.00;;;11.20;100.00
54948;BME280;41113;41.882;12.530;2022-12-18T09:10:55;102384.44;;;11.28;100.00
54948;BME280;41113;41.882;12.530;2022-12-18T09:13:21;102391.63;;;11.42;100.00
54948;BME280;41113;41.882;12.530;2022-12-18T09:15:49;102386.91;;;11.45;99.73
54948;BME280;41113;41.882;12.530;2022-12-18T09:18:17;102397.22;;;11.66;99.44
54948;BME280;41113;41.882;12.530;2022-12-18T09:20:43;102395.75;;;11.74;98.33
54948;BME280;41113;41.882;12.530;2022-12-18T09:23:09;102398.72;;;11.84;97.51
54948;BME280;41113;41.882;12.530;2022-12-18T09:25:35;102397.97;;;11.82;95.92
54948;BME280;41113;41.882;12.530;2022-12-18T09:28:05;102403.34;;;11.82;96.15
54948;BME280;41113;41.882;12.530;2022-12-18T09:30:31;102403.38;;;11.95;95.38
54948;BME280;41113;41.882;12.530;2022-12-18T09:33:00;102405.47;;;12.04;94.63
54948;BME280;41113;41.882;12.530;2022-12-18T09:35:25;102410.81;;;11.91;93.41
54948;BME280;41113;41.882;12.530;2022-12-18T09:37:53;102406.50;;;12.01;93.35
54948;BME280;41113;41.882;12.530;2022-12-18T09:40:21;102408.94;;;12.19;93.12
54948;BME280;41113;41.882;12.530;2022-12-18T09:42:54;102405.06;;;12.23;91.99
54948;BME280;41113;41.882;12.530;2022-12-18T09:45:21;102406.38;;;12.30;91.15
54948;BME280;41113;41.882;12.530;2022-12-18T09:47:47;102404.44;;;12.32;89.37
54948;BME280;41113;41.882;12.530;2022-12-18T09:50:33;102411.75;;;12.30;89.36
54948;BME280;41113;41.882;12.530;2022-12-18T09:53:07;102410.81;;;12.43;90.08
54948;BME280;41113;41.882;12.530;2022-12-18T09:55:41;102411.78;;;12.55;89.58
54948;BME280;41113;41.882;12.530;2022-12-18T09:58:12;102399.06;;;12.57;89.36
54948;BME280;41113;41.882;12.530;2022-12-18T10:00:42;102409.84;;;12.57;88.16
54948;BME280;41113;41.882;12.530;2022-12-18T10:03:13;102402.75;;;12.69;89.09
54948;BME280;41113;41.882;12.530;2022-12-18T10:06:07;102403.19;;;12.75;87.27
54948;BME280;41113;41.882;12.530;2022-12-18T10:08:46;102401.03;;;12.81;87.12
54948;BME280;41113;41.882;12.530;2022-12-18T10:13:52;102394.00;;;12.91;88.04
54948;BME280;41113;41.882;12.530;2022-12-18T10:16:42;102393.03;;;12.92;87.52
54948;BME280;41113;41.882;12.530;2022-12-18T10:22:14;102397.09;;;13.10;87.60
54948;BME280;41113;41.882;12.530;2022-12-18T10:27:39;102395.78;;;13.28;86.82
54948;BME280;41113;41.882;12.530;2022-12-18T10:30:20;102398.94;;;13.22;85.10
54948;BME280;41113;41.882;12.530;2022-12-18T10:32:46;102397.72;;;13.26;84.78
54948;BME280;41113;41.882;12.530;2022-12-18T10:35:20;102402.47;;;13.35;85.25
54948;BME280;41113;41.882;12.530;2022-12-18T10:38:41;102400.31;;;13.41;84.26
54948;BME280;41113;41.882;12.530;2022-12-18T10:43:38;102390.78;;;13.48;82.09
54948;BME280;41113;41.882;12.530;2022-12-18T10:51:33;102384.69;;;13.57;82.63
54948;BME280;41113;41.882;12.530;2022-12-18T10:54:16;102391.34;;;13.64;82.75
54948;BME280;41113;41.882;12.530;2022-12-18T10:56:42;102389.19;;;13.69;82.74
54948;BME280;41113;41.882;12.530;2022-12-18T10:59:10;102388.50;;;13.78;83.33
54948;BME280;41113;41.882;12.530;2022-12-18T11:01:52;102381.88;;;13.82;82.64
54948;BME280;41113;41.882;12.530;2022-12-18T11:04:25;102382.16;;;13.90;83.53
54948;BME280;41113;41.882;12.530;2022-12-18T11:07:02;102382.09;;;13.79;79.16
54948;BME280;41113;41.882;12.530;2022-12-18T11:09:31;102374.47;;;13.73;78.72
54948;BME280;41113;41.882;12.530;2022-12-18T11:12:02;102376.19;;;13.74;82.02
54948;BME280;41113;41.882;12.530;2022-12-18T11:14:55;102378.16;;;13.72;82.51
54948;BME280;41113;41.882;12.530;2022-12-18T11:17:22;102385.28;;;13.73;83.46
54948;BME280;41113;41.882;12.530;2022-12-18T11:19:56;102380.03;;;13.83;83.47
54948;BME280;41113;41.882;12.530;2022-12-18T11:22:33;102377.34;;;13.83;83.60
54948;BME280;41113;41.882;12.530;2022-12-18T11:25:02;102375.75;;;13.91;84.04
54948;BME280;41113;41.882;12.530;2022-12-18T11:27:29;102379.44;;;13.90;83.17
54948;BME280;41113;41.882;12.530;2022-12-18T11:30:08;102378.22;;;13.94;83.70
54948;BME280;41113;41.882;12.530;2022-12-18T11:32:37;102372.81;;;13.94;82.47
54948;BME280;41113;41.882;12.530;2022-12-18T11:37:52;102373.63;;;14.08;80.93
54948;BME280;41113;41.882;12.530;2022-12-18T11:40:26;102373.16;;;14.14;81.13
54948;BME280;41113;41.882;12.530;2022-12-18T11:43:05;102365.78;;;14.16;79.52
54948;BME280;41113;41.882;12.530;2022-12-18T11:45:35;102370.94;;;14.19;80.66
54948;BME280;41113;41.882;12.530;2022-12-18T11:48:16;102364.56;;;14.20;81.55
54948;BME280;41113;41.882;12.530;2022-12-18T11:50:54;102355.47;;;14.21;81.07
54948;BME280;41113;41.882;12.530;2022-12-18T11:53:20;102363.59;;;14.21;81.05
54948;BME280;41113;41.882;12.530;2022-12-18T11:58:37;102344.66;;;14.21;79.92
54948;BME280;41113;41.882;12.530;2022-12-18T12:01:15;102352.78;;;14.21;79.16
54948;BME280;41113;41.882;12.530;2022-12-18T12:04:17;102353.41;;;14.24;77.90
54948;BME280;41113;41.882;12.530;2022-12-18T12:07:26;102356.22;;;14.23;78.49
54948;BME280;41113;41.882;12.530;2022-12-18T12:15:10;102350.22;;;14.30;79.23
54948;BME280;41113;41.882;12.530;2022-12-18T12:17:56;102344.06;;;14.28;77.12
54948;BME280;41113;41.882;12.530;2022-12-18T12:24:02;102341.41;;;14.40;79.10
54948;BME280;41113;41.882;12.530;2022-12-18T12:32:07;102331.44;;;14.40;75.18
54948;BME280;41113;41.882;12.530;2022-12-18T12:40:05;102337.88;;;14.50;75.89
54948;BME280;41113;41.882;12.530;2022-12-18T12:42:58;102331.25;;;14.54;76.21
54948;BME280;41113;41.882;12.530;2022-12-18T12:46:14;102327.94;;;14.51;74.14
54948;BME280;41113;41.882;12.530;2022-12-18T12:53:40;102336.66;;;14.54;75.85
54948;BME280;41113;41.882;12.530;2022-12-18T12:56:07;102337.38;;;14.56;77.00
54948;BME280;41113;41.882;12.530;2022-12-18T13:01:43;102330.25;;;14.55;74.56
54948;BME280;41113;41.882;12.530;2022-12-18T13:04:28;102333.44;;;14.60;76.51
54948;BME280;41113;41.882;12.530;2022-12-18T13:07:03;102328.91;;;14.61;77.30
54948;BME280;41113;41.882;12.530;2022-12-18T13:09:33;102332.59;;;14.60;77.05
54948;BME280;41113;41.882;12.530;2022-12-18T13:12:12;102339.84;;;14.59;77.43
54948;BME280;41113;41.882;12.530;2022-12-18T13:15:13;102337.88;;;14.61;77.27
54948;BME280;41113;41.882;12.530;2022-12-18T13:17:45;102339.59;;;14.62;77.47
54948;BME280;41113;41.882;12.530;2022-12-18T13:20:12;102334.09;;;14.64;77.83
54948;BME280;41113;41.882;12.530;2022-12-18T13:22:46;102337.13;;;14.59;77.75
54948;BME280;41113;41.882;12.530;2022-12-18T13:28:10;102339.34;;;14.54;77.88
54948;BME280;41113;41.882;12.530;2022-12-18T13:30:54;102341.31;;;14.52;74.54
54948;BME280;41113;41.882;12.530;2022-12-18T13:36:01;102339.72;;;14.61;76.60
54948;BME280;41113;41.882;12.530;2022-12-18T13:40:58;102348.69;;;14.61;76.97
54948;BME280;41113;41.882;12.530;2022-12-18T13:44:09;102344.25;;;14.60;77.10
54948;BME280;41113;41.882;12.530;2022-12-18T13:46:30;102352.75;;;14.56;76.70
54948;BME280;41113;41.882;12.530;2022-12-18T13:51:50;102357.28;;;14.55;77.32
54948;BME280;41113;41.882;12.530;2022-12-18T13:54:30;102358.16;;;14.56;77.47
54948;BME280;41113;41.882;12.530;2022-12-18T13:56:58;102360.75;;;14.57;76.71
54948;BME280;41113;41.882;12.530;2022-12-18T13:59:26;102361.72;;;14.56;75.57
54948;BME280;41113;41.882;12.530;2022-12-18T14:01:59;102376.09;;;14.57;75.60
54948;BME280;41113;41.882;12.530;2022-12-18T14:04:26;102375.84;;;14.60;76.27
54948;BME280;41113;41.882;12.530;2022-12-18T14:06:58;102379.41;;;14.60;75.91
54948;BME280;41113;41.882;12.530;2022-12-18T14:10:02;102372.16;;;14.61;76.73
54948;BME280;41113;41.882;12.530;2022-12-18T14:12:25;102380.41;;;14.59;77.24
54948;BME280;41113;41.882;12.530;2022-12-18T14:17:54;102383.59;;;14.53;77.30
54948;BME280;41113;41.882;12.530;2022-12-18T14:20:20;102383.84;;;14.50;77.37